sensor_id;sensor_type;location;lat;lon;timestamp;temperature;humidity
3053;DHT22;1536;51.098;6.414;2023-08-20T00:00:53;21.60;99.90
3053;DHT22;1536;51.098;6.414;2023-08-20T00:03:22;21.60;99.90
3053;DHT22;1536;51.098;6.414;2023-08-20T00:05:51;21.50;99.90
3053;DHT22;1536;51.098;6.414;2023-08-20T00:08:18;21.50;99.90
3053;DHT22;1536;51.098;6.414;2023-08-20T00:10:45;21.50;99.90
3053;DHT22;1536;51.098;6.414;2023-08-20T00:13:12;21.50;99.90
3053;DHT22;1536;51.098;6.414;2023-08-20T00:15:39;21.50;99.90
3053;DHT22;1536;51.098;6.414;2023-08-20T00:18:07;21.50;99.90
3053;DHT22;1536;51.098;6.414;2023-08-20T00:20:36;21.40;99.90
3053;DHT22;1536;51.098;6.414;2023-08-20T00:23:04;21.40;99.90
3053;DHT22;1536;51.098;6.414;2023-08-20T00:25:32;21.50;99.90
3053;DHT22;1536;51.098;6.414;2023-08-20T00:27:58;21.40;99.90
3053;DHT22;1536;51.098;6.414;2023-08-20T00:30:25;21.40;99.90
3053;DHT22;1536;51.098;6.414;2023-08-20T00:32:52;21.40;99.90
3053;DHT22;1536;51.098;6.414;2023-08-20T00:35:19;21.40;99.90
3053;DHT22;1536;51.098;6.414;2023-08-20T00:37:47;21.40;99.90
3053;DHT22;1536;51.098;6.414;2023-08-20T00:40:15;21.40;99.90
3053;DHT22;1536;51.098;6.414;2023-08-20T00:42:43;21.40;99.90
3053;DHT22;1536;51.098;6.414;2023-08-20T00:45:10;21.40;99.90
3053;DHT22;1536;51.098;6.414;2023-08-20T00:47:37;21.40;99.90
3053;DHT22;1536;51.098;6.414;2023-08-20T00:50:06;21.40;99.90
3053;DHT22;1536;51.098;6.414;2023-08-20T00:52:34;21.40;99.90
3053;DHT22;1536;51.098;6.414;2023-08-20T00:55:07;21.40;99.90
3053;DHT22;1536;51.098;6.414;2023-08-20T00:57:34;21.30;99.90
3053;DHT22;1536;51.098;6.414;2023-08-20T01:00:02;21.40;99.90
3053;DHT22;1536;51.098;6.414;2023-08-20T01:02:32;21.30;99.90
3053;DHT22;1536;51.098;6.414;2023-08-20T01:05:00;21.30;99.90
3053;DHT22;1536;51.098;6.414;2023-08-20T01:07:31;21.30;99.90
3053;DHT22;1536;51.098;6.414;2023-08-20T01:10:09;21.30;99.90
3053;DHT22;1536;51.098;6.414;2023-08-20T01:12:39;21.30;99.90
3053;DHT22;1536;51.098;6.414;2023-08-20T01:15:07;21.30;99.90
3053;DHT22;1536;51.098;6.414;2023-08-20T01:17:39;21.30;99.90
3053;DHT22;1536;51.098;6.414;2023-08-20T01:20:07;21.30;99.90
3053;DHT22;1536;51.098;6.414;2023-08-20T01:22:59;21.30;99.90
3053;DHT22;1536;51.098;6.414;2023-08-20T01:25:45;21.30;99.90
3053;DHT22;1536;51.098;6.414;2023-08-20T01:28:25;21.30;99.90
3053;DHT22;1536;51.098;6.414;2023-08-20T01:30:53;21.30;99.90
3053;DHT22;1536;51.098;6.414;2023-08-20T01:33:20;21.40;99.90
3053;DHT22;1536;51.098;6.414;2023-08-20T01:35:47;21.30;99.90
3053;DHT22;1536;51.098;6.414;2023-08-20T01:38:14;21.30;99.90
3053;DHT22;1536;51.098;6.414;2023-08-20T01:40:41;21.30;99.90
3053;DHT22;1536;51.098;6.414;2023-08-20T01:43:07;21.30;99.90
3053;DHT22;1536;51.098;6.414;2023-08-20T01:45:36;21.30;99.90
3053;DHT22;1536;51.098;6.414;2023-08-20T01:48:16;21.30;99.90
3053;DHT22;1536;51.098;6.414;2023-08-20T01:50:43;21.30;99.90
3053;DHT22;1536;51.098;6.414;2023-08-20T01:53:12;21.20;99.90
3053;DHT22;1536;51.098;6.414;2023-08-20T01:55:39;21.20;99.90
3053;DHT22;1536;51.098;6.414;2023-08-20T01:58:11;21.30;99.90
3053;DHT22;1536;51.098;6.414;2023-08-20T02:00:39;21.20;99.90
3053;DHT22;1536;51.098;6.414;2023-08-20T02:03:06;21.20;99.90
3053;DHT22;1536;51.098;6.414;2023-08-20T02:05:33;21.20;99.90
3053;DHT22;1536;51.098;6.414;2023-08-20T02:08:00;21.20;99.90
3053;DHT22;1536;51.098;6.414;2023-08-20T02:10:27;21.20;99.90
3053;DHT22;1536;51.098;6.414;2023-08-20T02:12:54;21.20;99.90
3053;DHT22;1536;51.098;6.414;2023-08-20T02:15:21;21.20;99.90
3053;DHT22;1536;51.098;6.414;2023-08-20T02:17:49;21.20;99.90
3053;DHT22;1536;51.098;6.414;2023-08-20T02:20:16;21.10;99.90
3053;DHT22;1536;51.098;6.414;2023-08-20T02:22:43;21.10;99.90
3053;DHT22;1536;51.098;6.414;2023-08-20T02:25:09;21.10;99.90
3053;DHT22;1536;51.098;6.414;2023-08-20T02:27:36;21.10;99.90
3053;DHT22;1536;51.098;6.414;2023-08-20T02:30:04;21.10;99.90
3053;DHT22;1536;51.098;6.414;2023-08-20T02:32:31;21.10;99.90
3053;DHT22;1536;51.098;6.414;2023-08-20T02:35:00;21.10;99.90
3053;DHT22;1536;51.098;6.414;2023-08-20T02:37:30;21.10;99.90
3053;DHT22;1536;51.098;6.414;2023-08-20T02:39:57;21.10;99.90
3053;DHT22;1536;51.098;6.414;2023-08-20T02:42:24;21.10;99.90
3053;DHT22;1536;51.098;6.414;2023-08-20T02:44:50;21.10;99.90
3053;DHT22;1536;51.098;6.414;2023-08-20T02:47:17;21.20;99.90
3053;DHT22;1536;51.098;6.414;2023-08-20T02:49:44;21.10;99.90
3053;DHT22;1536;51.098;6.414;2023-08-20T02:52:12;21.20;99.90
3053;DHT22;1536;51.098;6.414;2023-08-20T02:54:39;21.20;99.90
3053;DHT22;1536;51.098;6.414;2023-08-20T02:57:07;21.20;99.90
3053;DHT22;1536;51.098;6.414;2023-08-20T02:59:34;21.10;99.90
3053;DHT22;1536;51.098;6.414;2023-08-20T03:02:01;21.10;99.90
3053;DHT22;1536;51.098;6.414;2023-08-20T03:04:29;21.10;99.90
3053;DHT22;1536;51.098;6.414;2023-08-20T03:06:55;21.10;99.90
3053;DHT22;1536;51.098;6.414;2023-08-20T03:09:25;21.10;99.90
3053;DHT22;1536;51.098;6.414;2023-08-20T03:11:52;21.10;99.90
3053;DHT22;1536;51.098;6.414;2023-08-20T03:14:19;21.10;99.90
3053;DHT22;1536;51.098;6.414;2023-08-20T03:16:46;21.10;99.90
3053;DHT22;1536;51.098;6.414;2023-08-20T03:19:15;21.10;99.90
3053;DHT22;1536;51.098;6.414;2023-08-20T03:21:42;21.00;99.90
3053;DHT22;1536;51.098;6.414;2023-08-20T03:24:09;21.00;99.90
3053;DHT22;1536;51.098;6.414;2023-08-20T03:26:37;21.00;99.90
3053;DHT22;1536;51.098;6.414;2023-08-20T03:29:05;21.00;99.90
3053;DHT22;1536;51.098;6.414;2023-08-20T03:31:32;21.00;99.90
3053;DHT22;1536;51.098;6.414;2023-08-20T03:33:59;21.00;99.90
3053;DHT22;1536;51.098;6.414;2023-08-20T03:36:25;21.00;99.90
3053;DHT22;1536;51.098;6.414;2023-08-20T03:38:52;21.00;99.90
3053;DHT22;1536;51.098;6.414;2023-08-20T03:41:19;21.00;99.90
3053;DHT22;1536;51.098;6.414;2023-08-20T03:43:47;21.00;99.90
3053;DHT22;1536;51.098;6.414;2023-08-20T03:46:14;21.00;99.90
3053;DHT22;1536;51.098;6.414;2023-08-20T03:48:42;21.00;99.90
3053;DHT22;1536;51.098;6.414;2023-08-20T03:51:08;21.00;99.90
3053;DHT22;1536;51.098;6.414;2023-08-20T03:53:35;21.00;99.90
3053;DHT22;1536;51.098;6.414;2023-08-20T03:56:02;21.00;99.90
3053;DHT22;1536;51.098;6.414;2023-08-20T03:58:28;21.00;99.90
3053;DHT22;1536;51.098;6.414;2023-08-20T04:00:57;21.00;99.90
3053;DHT22;1536;51.098;6.414;2023-08-20T04:03:23;21.00;99.90
3053;DHT22;1536;51.098;6.414;2023-08-20T04:05:50;21.00;99.90
3053;DHT22;1536;51.098;6.414;2023-08-20T04:08:17;21.00;99.90
3053;DHT22;1536;51.098;6.414;2023-08-20T04:10:44;21.00;99.90
3053;DHT22;1536;51.098;6.414;2023-08-20T04:13:11;21.00;99.90
3053;DHT22;1536;51.098;6.414;2023-08-20T04:15:39;21.00;99.90
3053;DHT22;1536;51.098;6.414;2023-08-20T04:18:07;21.00;99.90
3053;DHT22;1536;51.098;6.414;2023-08-20T04:20:34;21.00;99.90
3053;DHT22;1536;51.098;6.414;2023-08-20T04:23:01;21.00;99.90
3053;DHT22;1536;51.098;6.414;2023-08-20T04:25:27;21.00;99.90
3053;DHT22;1536;51.098;6.414;2023-08-20T04:27:54;21.00;99.90
3053;DHT22;1536;51.098;6.414;2023-08-20T04:30:21;20.90;99.90
3053;DHT22;1536;51.098;6.414;2023-08-20T04:32:48;20.90;99.90
3053;DHT22;1536;51.098;6.414;2023-08-20T04:35:16;20.90;99.90
3053;DHT22;1536;51.098;6.414;2023-08-20T04:37:43;20.80;99.90
3053;DHT22;1536;51.098;6.414;2023-08-20T04:40:10;20.80;99.90
3053;DHT22;1536;51.098;6.414;2023-08-20T04:42:38;20.80;99.90
3053;DHT22;1536;51.098;6.414;2023-08-20T04:48:26;20.80;99.90
3053;DHT22;1536;51.098;6.414;2023-08-20T04:50:54;20.80;99.90
3053;DHT22;1536;51.098;6.414;2023-08-20T04:53:21;20.80;99.90
3053;DHT22;1536;51.098;6.414;2023-08-20T04:55:48;20.80;99.90
3053;DHT22;1536;51.098;6.414;2023-08-20T04:58:15;20.80;99.90
3053;DHT22;1536;51.098;6.414;2023-08-20T05:00:42;20.80;99.90
3053;DHT22;1536;51.098;6.414;2023-08-20T05:03:09;20.80;99.90
3053;DHT22;1536;51.098;6.414;2023-08-20T05:05:35;20.80;99.90
3053;DHT22;1536;51.098;6.414;2023-08-20T05:08:04;20.80;99.90
3053;DHT22;1536;51.098;6.414;2023-08-20T05:10:31;20.80;99.90
3053;DHT22;1536;51.098;6.414;2023-08-20T05:12:58;20.80;99.90
3053;DHT22;1536;51.098;6.414;2023-08-20T05:15:25;20.80;99.90
3053;DHT22;1536;51.098;6.414;2023-08-20T05:17:52;20.80;99.90
3053;DHT22;1536;51.098;6.414;2023-08-20T05:20:18;20.70;99.90
3053;DHT22;1536;51.098;6.414;2023-08-20T05:22:45;20.70;99.90
3053;DHT22;1536;51.098;6.414;2023-08-20T05:25:13;20.70;99.90
3053;DHT22;1536;51.098;6.414;2023-08-20T05:27:40;20.70;99.90
3053;DHT22;1536;51.098;6.414;2023-08-20T05:30:07;20.70;99.90
3053;DHT22;1536;51.098;6.414;2023-08-20T05:32:35;20.70;99.90
3053;DHT22;1536;51.098;6.414;2023-08-20T05:35:01;20.70;99.90
3053;DHT22;1536;51.098;6.414;2023-08-20T05:37:29;20.80;99.90
3053;DHT22;1536;51.098;6.414;2023-08-20T05:39:56;20.70;99.90
3053;DHT22;1536;51.098;6.414;2023-08-20T05:42:24;20.80;99.90
3053;DHT22;1536;51.098;6.414;2023-08-20T05:44:51;20.80;99.90
3053;DHT22;1536;51.098;6.414;2023-08-20T05:47:18;20.80;99.90
3053;DHT22;1536;51.098;6.414;2023-08-20T05:49:45;20.80;99.90
3053;DHT22;1536;51.098;6.414;2023-08-20T05:52:12;20.80;99.90
3053;DHT22;1536;51.098;6.414;2023-08-20T05:54:38;20.90;99.90
3053;DHT22;1536;51.098;6.414;2023-08-20T05:57:05;20.90;99.90
3053;DHT22;1536;51.098;6.414;2023-08-20T05:59:33;20.90;99.90
3053;DHT22;1536;51.098;6.414;2023-08-20T06:02:01;20.90;99.90
3053;DHT22;1536;51.098;6.414;2023-08-20T06:04:28;21.00;99.90
3053;DHT22;1536;51.098;6.414;2023-08-20T06:06:55;21.00;99.90
3053;DHT22;1536;51.098;6.414;2023-08-20T06:09:21;21.10;99.90
3053;DHT22;1536;51.098;6.414;2023-08-20T06:11:48;21.10;99.90
3053;DHT22;1536;51.098;6.414;2023-08-20T06:14:15;21.10;99.90
3053;DHT22;1536;51.098;6.414;2023-08-20T06:16:43;21.20;99.90
3053;DHT22;1536;51.098;6.414;2023-08-20T06:19:10;21.20;99.90
3053;DHT22;1536;51.098;6.414;2023-08-20T06:21:37;21.20;99.90
3053;DHT22;1536;51.098;6.414;2023-08-20T06:24:04;21.30;99.90
3053;DHT22;1536;51.098;6.414;2023-08-20T06:26:31;21.30;99.90
3053;DHT22;1536;51.098;6.414;2023-08-20T06:28:58;21.30;99.90
3053;DHT22;1536;51.098;6.414;2023-08-20T06:31:24;21.40;99.90
3053;DHT22;1536;51.098;6.414;2023-08-20T06:33:52;21.40;99.90
3053;DHT22;1536;51.098;6.414;2023-08-20T06:36:19;21.40;99.90
3053;DHT22;1536;51.098;6.414;2023-08-20T06:38:46;21.40;99.90
3053;DHT22;1536;51.098;6.414;2023-08-20T06:41:13;21.50;99.90
3053;DHT22;1536;51.098;6.414;2023-08-20T06:43:40;21.50;99.90
3053;DHT22;1536;51.098;6.414;2023-08-20T06:46:07;21.60;99.90
3053;DHT22;1536;51.098;6.414;2023-08-20T06:48:34;21.60;99.90
3053;DHT22;1536;51.098;6.414;2023-08-20T06:51:11;21.70;99.90
3053;DHT22;1536;51.098;6.414;2023-08-20T06:53:38;21.70;99.90
3053;DHT22;1536;51.098;6.414;2023-08-20T06:56:06;21.70;99.90
3053;DHT22;1536;51.098;6.414;2023-08-20T06:58:33;21.70;99.90
3053;DHT22;1536;51.098;6.414;2023-08-20T07:01:00;21.80;99.90
3053;DHT22;1536;51.098;6.414;2023-08-20T07:03:32;21.80;99.90
3053;DHT22;1536;51.098;6.414;2023-08-20T07:05:59;21.90;99.90
3053;DHT22;1536;51.098;6.414;2023-08-20T07:08:27;22.00;99.90
3053;DHT22;1536;51.098;6.414;2023-08-20T07:10:54;22.00;99.90
3053;DHT22;1536;51.098;6.414;2023-08-20T07:13:21;22.00;99.90
3053;DHT22;1536;51.098;6.414;2023-08-20T07:15:48;22.10;99.90
3053;DHT22;1536;51.098;6.414;2023-08-20T07:18:15;22.10;99.90
3053;DHT22;1536;51.098;6.414;2023-08-20T07:20:42;22.20;99.90
3053;DHT22;1536;51.098;6.414;2023-08-20T07:23:09;22.20;99.90
3053;DHT22;1536;51.098;6.414;2023-08-20T07:25:38;22.20;99.90
3053;DHT22;1536;51.098;6.414;2023-08-20T07:28:05;22.30;99.90
3053;DHT22;1536;51.098;6.414;2023-08-20T07:30:32;22.30;99.90
3053;DHT22;1536;51.098;6.414;2023-08-20T07:32:59;22.40;99.90
3053;DHT22;1536;51.098;6.414;2023-08-20T07:35:26;22.40;99.90
3053;DHT22;1536;51.098;6.414;2023-08-20T07:37:53;22.50;99.90
3053;DHT22;1536;51.098;6.414;2023-08-20T07:40:20;22.60;99.90
3053;DHT22;1536;51.098;6.414;2023-08-20T07:42:48;22.60;99.90
3053;DHT22;1536;51.098;6.414;2023-08-20T07:45:15;22.70;99.90
3053;DHT22;1536;51.098;6.414;2023-08-20T07:47:42;22.70;99.90
3053;DHT22;1536;51.098;6.414;2023-08-20T07:50:09;22.80;99.90
3053;DHT22;1536;51.098;6.414;2023-08-20T07:52:36;22.80;99.90
3053;DHT22;1536;51.098;6.414;2023-08-20T07:55:03;22.90;99.90
3053;DHT22;1536;51.098;6.414;2023-08-20T07:57:30;23.00;99.90
3053;DHT22;1536;51.098;6.414;2023-08-20T07:59:58;23.00;99.90
3053;DHT22;1536;51.098;6.414;2023-08-20T08:02:25;23.10;99.90
3053;DHT22;1536;51.098;6.414;2023-08-20T08:04:51;23.10;99.90
3053;DHT22;1536;51.098;6.414;2023-08-20T08:07:18;23.20;99.90
3053;DHT22;1536;51.098;6.414;2023-08-20T08:09:45;23.30;99.90
3053;DHT22;1536;51.098;6.414;2023-08-20T08:12:12;23.40;99.90
3053;DHT22;1536;51.098;6.414;2023-08-20T08:14:38;23.40;99.90
3053;DHT22;1536;51.098;6.414;2023-08-20T08:17:06;23.50;99.90
3053;DHT22;1536;51.098;6.414;2023-08-20T08:19:33;23.60;99.90
3053;DHT22;1536;51.098;6.414;2023-08-20T08:21:59;23.70;99.90
3053;DHT22;1536;51.098;6.414;2023-08-20T08:24:26;23.80;99.90
3053;DHT22;1536;51.098;6.414;2023-08-20T08:26:53;23.90;99.90
3053;DHT22;1536;51.098;6.414;2023-08-20T08:29:19;23.90;99.90
3053;DHT22;1536;51.098;6.414;2023-08-20T08:31:46;24.00;99.90
3053;DHT22;1536;51.098;6.414;2023-08-20T08:34:14;24.10;99.90
3053;DHT22;1536;51.098;6.414;2023-08-20T08:36:41;24.20;99.90
3053;DHT22;1536;51.098;6.414;2023-08-20T08:39:07;24.30;99.90
3053;DHT22;1536;51.098;6.414;2023-08-20T08:41:35;24.40;99.90
3053;DHT22;1536;51.098;6.414;2023-08-20T08:44:05;24.50;99.90
3053;DHT22;1536;51.098;6.414;2023-08-20T08:46:33;24.60;99.90
3053;DHT22;1536;51.098;6.414;2023-08-20T08:49:01;24.70;99.90
3053;DHT22;1536;51.098;6.414;2023-08-20T08:51:34;24.80;99.90
3053;DHT22;1536;51.098;6.414;2023-08-20T08:54:02;24.90;99.90
3053;DHT22;1536;51.098;6.414;2023-08-20T08:56:29;25.00;99.90
3053;DHT22;1536;51.098;6.414;2023-08-20T08:58:55;25.20;99.90
3053;DHT22;1536;51.098;6.414;2023-08-20T09:01:22;25.20;99.90
3053;DHT22;1536;51.098;6.414;2023-08-20T09:03:49;25.30;99.90
3053;DHT22;1536;51.098;6.414;2023-08-20T09:06:16;25.40;99.90
3053;DHT22;1536;51.098;6.414;2023-08-20T09:08:44;25.50;99.90
3053;DHT22;1536;51.098;6.414;2023-08-20T09:11:10;25.60;99.90
3053;DHT22;1536;51.098;6.414;2023-08-20T09:13:39;25.70;99.90
3053;DHT22;1536;51.098;6.414;2023-08-20T09:16:07;25.70;99.90
3053;DHT22;1536;51.098;6.414;2023-08-20T09:18:38;25.80;99.90
3053;DHT22;1536;51.098;6.414;2023-08-20T09:21:06;25.90;99.90
3053;DHT22;1536;51.098;6.414;2023-08-20T09:23:33;26.00;99.90
3053;DHT22;1536;51.098;6.414;2023-08-20T09:26:03;26.10;99.90
3053;DHT22;1536;51.098;6.414;2023-08-20T09:28:40;26.20;99.90
3053;DHT22;1536;51.098;6.414;2023-08-20T09:31:07;26.30;99.90
3053;DHT22;1536;51.098;6.414;2023-08-20T09:33:34;26.40;99.90
3053;DHT22;1536;51.098;6.414;2023-08-20T09:36:03;26.50;99.90
3053;DHT22;1536;51.098;6.414;2023-08-20T09:38:29;26.50;99.90
3053;DHT22;1536;51.098;6.414;2023-08-20T09:40:56;26.50;99.90
3053;DHT22;1536;51.098;6.414;2023-08-20T09:43:25;26.50;99.90
3053;DHT22;1536;51.098;6.414;2023-08-20T09:45:55;26.70;99.90
3053;DHT22;1536;51.098;6.414;2023-08-20T09:48:24;26.70;99.90
3053;DHT22;1536;51.098;6.414;2023-08-20T09:50:58;26.70;99.90
3053;DHT22;1536;51.098;6.414;2023-08-20T09:53:29;26.60;99.90
3053;DHT22;1536;51.098;6.414;2023-08-20T09:56:05;26.60;99.90
3053;DHT22;1536;51.098;6.414;2023-08-20T09:58:37;26.60;99.90
3053;DHT22;1536;51.098;6.414;2023-08-20T10:01:04;26.70;99.90
3053;DHT22;1536;51.098;6.414;2023-08-20T10:03:31;26.70;99.90
3053;DHT22;1536;51.098;6.414;2023-08-20T10:06:00;26.70;99.90
3053;DHT22;1536;51.098;6.414;2023-08-20T10:08:27;26.70;99.90
3053;DHT22;1536;51.098;6.414;2023-08-20T10:10:54;26.80;99.90
3053;DHT22;1536;51.098;6.414;2023-08-20T10:13:21;26.90;99.90
3053;DHT22;1536;51.098;6.414;2023-08-20T10:15:50;27.00;99.90
3053;DHT22;1536;51.098;6.414;2023-08-20T10:18:19;27.20;99.90
3053;DHT22;1536;51.098;6.414;2023-08-20T10:20:46;27.20;99.90
3053;DHT22;1536;51.098;6.414;2023-08-20T10:23:12;27.30;99.90
3053;DHT22;1536;51.098;6.414;2023-08-20T10:25:42;27.40;99.90
3053;DHT22;1536;51.098;6.414;2023-08-20T10:28:13;27.60;99.90
3053;DHT22;1536;51.098;6.414;2023-08-20T10:31:06;27.70;99.90
3053;DHT22;1536;51.098;6.414;2023-08-20T10:33:34;27.70;99.90
3053;DHT22;1536;51.098;6.414;2023-08-20T10:36:13;27.70;99.90
3053;DHT22;1536;51.098;6.414;2023-08-20T10:38:41;27.50;99.90
3053;DHT22;1536;51.098;6.414;2023-08-20T10:41:08;27.40;99.90
3053;DHT22;1536;51.098;6.414;2023-08-20T10:43:37;27.40;99.90
3053;DHT22;1536;51.098;6.414;2023-08-20T10:46:07;27.40;99.90
3053;DHT22;1536;51.098;6.414;2023-08-20T10:48:35;27.30;99.90
3053;DHT22;1536;51.098;6.414;2023-08-20T10:51:09;27.30;99.90
3053;DHT22;1536;51.098;6.414;2023-08-20T10:53:37;27.30;99.90
3053;DHT22;1536;51.098;6.414;2023-08-20T10:56:15;27.20;99.90
3053;DHT22;1536;51.098;6.414;2023-08-20T10:58:43;27.20;99.90
3053;DHT22;1536;51.098;6.414;2023-08-20T11:01:15;27.30;99.90
3053;DHT22;1536;51.098;6.414;2023-08-20T11:03:43;27.30;99.90
3053;DHT22;1536;51.098;6.414;2023-08-20T11:06:11;27.40;99.90
3053;DHT22;1536;51.098;6.414;2023-08-20T11:08:38;27.40;99.90
3053;DHT22;1536;51.098;6.414;2023-08-20T11:11:05;27.50;99.90
3053;DHT22;1536;51.098;6.414;2023-08-20T11:13:32;27.50;99.90
3053;DHT22;1536;51.098;6.414;2023-08-20T11:16:00;27.50;99.90
3053;DHT22;1536;51.098;6.414;2023-08-20T11:18:28;27.50;99.90
3053;DHT22;1536;51.098;6.414;2023-08-20T11:20:56;27.40;99.90
3053;DHT22;1536;51.098;6.414;2023-08-20T11:23:23;27.40;99.90
3053;DHT22;1536;51.098;6.414;2023-08-20T11:25:50;27.40;99.90
3053;DHT22;1536;51.098;6.414;2023-08-20T11:28:17;27.60;99.90
3053;DHT22;1536;51.098;6.414;2023-08-20T11:30:45;27.60;99.90
3053;DHT22;1536;51.098;6.414;2023-08-20T11:33:12;27.70;99.90
3053;DHT22;1536;51.098;6.414;2023-08-20T11:35:41;27.70;99.90
3053;DHT22;1536;51.098;6.414;2023-08-20T11:38:09;27.70;99.90
3053;DHT22;1536;51.098;6.414;2023-08-20T11:40:36;27.70;99.90
3053;DHT22;1536;51.098;6.414;2023-08-20T11:43:04;27.80;99.90
3053;DHT22;1536;51.098;6.414;2023-08-20T11:45:31;27.80;99.90
3053;DHT22;1536;51.098;6.414;2023-08-20T11:47:59;27.80;99.90
3053;DHT22;1536;51.098;6.414;2023-08-20T11:50:26;27.70;99.90
3053;DHT22;1536;51.098;6.414;2023-08-20T11:52:54;27.60;99.90
3053;DHT22;1536;51.098;6.414;2023-08-20T11:55:24;27.60;99.90
3053;DHT22;1536;51.098;6.414;2023-08-20T11:57:51;27.60;99.90
3053;DHT22;1536;51.098;6.414;2023-08-20T12:00:24;27.60;99.90
3053;DHT22;1536;51.098;6.414;2023-08-20T12:02:52;27.60;99.90
3053;DHT22;1536;51.098;6.414;2023-08-20T12:05:19;27.70;99.90
3053;DHT22;1536;51.098;6.414;2023-08-20T12:07:56;27.70;99.90
3053;DHT22;1536;51.098;6.414;2023-08-20T12:10:24;27.70;99.90
3053;DHT22;1536;51.098;6.414;2023-08-20T12:12:52;27.70;99.90
3053;DHT22;1536;51.098;6.414;2023-08-20T12:15:19;27.80;99.90
3053;DHT22;1536;51.098;6.414;2023-08-20T12:17:59;27.80;99.90
3053;DHT22;1536;51.098;6.414;2023-08-20T12:20:28;27.90;99.90
3053;DHT22;1536;51.098;6.414;2023-08-20T12:22:58;27.90;99.90
3053;DHT22;1536;51.098;6.414;2023-08-20T12:25:24;27.90;99.90
3053;DHT22;1536;51.098;6.414;2023-08-20T12:27:51;27.90;99.90
3053;DHT22;1536;51.098;6.414;2023-08-20T12:30:18;27.80;99.90
3053;DHT22;1536;51.098;6.414;2023-08-20T12:32:46;27.90;99.90
3053;DHT22;1536;51.098;6.414;2023-08-20T12:35:12;27.80;99.90
3053;DHT22;1536;51.098;6.414;2023-08-20T12:37:39;27.70;99.90
3053;DHT22;1536;51.098;6.414;2023-08-20T12:40:09;27.70;99.90
3053;DHT22;1536;51.098;6.414;2023-08-20T12:42:37;27.70;99.90
3053;DHT22;1536;51.098;6.414;2023-08-20T12:45:05;27.60;99.90
3053;DHT22;1536;51.098;6.414;2023-08-20T12:47:32;27.60;99.90
3053;DHT22;1536;51.098;6.414;2023-08-20T12:49:59;27.70;99.90
3053;DHT22;1536;51.098;6.414;2023-08-20T12:52:26;27.70;99.90
3053;DHT22;1536;51.098;6.414;2023-08-20T12:54:53;27.80;99.90
3053;DHT22;1536;51.098;6.414;2023-08-20T12:57:21;27.80;99.90
3053;DHT22;1536;51.098;6.414;2023-08-20T12:59:47;27.80;99.90
3053;DHT22;1536;51.098;6.414;2023-08-20T13:02:14;27.80;99.90
3053;DHT22;1536;51.098;6.414;2023-08-20T13:04:41;27.70;99.90
3053;DHT22;1536;51.098;6.414;2023-08-20T13:07:08;27.80;99.90
3053;DHT22;1536;51.098;6.414;2023-08-20T13:09:36;27.80;99.90
3053;DHT22;1536;51.098;6.414;2023-08-20T13:12:04;27.90;99.90
3053;DHT22;1536;51.098;6.414;2023-08-20T13:14:36;28.00;99.90
3053;DHT22;1536;51.098;6.414;2023-08-20T13:17:03;28.10;99.90
3053;DHT22;1536;51.098;6.414;2023-08-20T13:19:30;28.20;99.90
3053;DHT22;1536;51.098;6.414;2023-08-20T13:21:57;28.30;99.90
3053;DHT22;1536;51.098;6.414;2023-08-20T13:24:24;28.40;99.90
3053;DHT22;1536;51.098;6.414;2023-08-20T13:26:51;28.40;99.90
3053;DHT22;1536;51.098;6.414;2023-08-20T13:29:18;28.50;99.90
3053;DHT22;1536;51.098;6.414;2023-08-20T13:31:46;28.50;99.90
3053;DHT22;1536;51.098;6.414;2023-08-20T13:34:13;28.50;99.90
3053;DHT22;1536;51.098;6.414;2023-08-20T13:36:39;28.60;99.90
3053;DHT22;1536;51.098;6.414;2023-08-20T13:39:06;28.60;99.90
3053;DHT22;1536;51.098;6.414;2023-08-20T13:41:33;28.60;99.90
3053;DHT22;1536;51.098;6.414;2023-08-20T13:43:59;28.70;99.90
3053;DHT22;1536;51.098;6.414;2023-08-20T13:46:26;28.70;99.90
3053;DHT22;1536;51.098;6.414;2023-08-20T13:48:55;28.70;99.90
3053;DHT22;1536;51.098;6.414;2023-08-20T13:51:21;28.70;99.90
3053;DHT22;1536;51.098;6.414;2023-08-20T13:53:48;28.70;99.90
3053;DHT22;1536;51.098;6.414;2023-08-20T13:56:15;28.80;99.90
3053;DHT22;1536;51.098;6.414;2023-08-20T13:58:41;28.80;99.90
3053;DHT22;1536;51.098;6.414;2023-08-20T14:01:08;28.80;99.90
3053;DHT22;1536;51.098;6.414;2023-08-20T14:03:35;28.90;99.90
3053;DHT22;1536;51.098;6.414;2023-08-20T14:06:03;29.00;99.90
3053;DHT22;1536;51.098;6.414;2023-08-20T14:08:30;29.00;99.90
3053;DHT22;1536;51.098;6.414;2023-08-20T14:10:56;29.00;99.90
3053;DHT22;1536;51.098;6.414;2023-08-20T14:13:23;28.90;99.90
3053;DHT22;1536;51.098;6.414;2023-08-20T14:15:50;28.80;99.90
3053;DHT22;1536;51.098;6.414;2023-08-20T14:18:16;28.60;99.90
3053;DHT22;1536;51.098;6.414;2023-08-20T14:20:43;28.50;99.90
3053;DHT22;1536;51.098;6.414;2023-08-20T14:23:11;28.50;99.90
3053;DHT22;1536;51.098;6.414;2023-08-20T14:25:38;28.60;99.90
3053;DHT22;1536;51.098;6.414;2023-08-20T14:28:05;28.60;99.90
3053;DHT22;1536;51.098;6.414;2023-08-20T14:30:36;28.50;99.90
3053;DHT22;1536;51.098;6.414;2023-08-20T14:33:03;28.40;99.90
3053;DHT22;1536;51.098;6.414;2023-08-20T14:35:29;28.40;99.90
3053;DHT22;1536;51.098;6.414;2023-08-20T14:37:56;28.40;99.90
3053;DHT22;1536;51.098;6.414;2023-08-20T14:40:24;28.30;99.90
3053;DHT22;1536;51.098;6.414;2023-08-20T14:42:51;28.20;99.90
3053;DHT22;1536;51.098;6.414;2023-08-20T14:45:17;28.10;99.90
3053;DHT22;1536;51.098;6.414;2023-08-20T14:47:44;28.00;99.90
3053;DHT22;1536;51.098;6.414;2023-08-20T14:50:11;28.00;99.90
3053;DHT22;1536;51.098;6.414;2023-08-20T14:52:37;27.90;99.90
3053;DHT22;1536;51.098;6.414;2023-08-20T14:55:05;27.80;99.90
3053;DHT22;1536;51.098;6.414;2023-08-20T14:57:35;27.70;99.90
3053;DHT22;1536;51.098;6.414;2023-08-20T15:00:04;27.70;99.90
3053;DHT22;1536;51.098;6.414;2023-08-20T15:02:33;27.80;99.90
3053;DHT22;1536;51.098;6.414;2023-08-20T15:05:00;28.00;99.90
3053;DHT22;1536;51.098;6.414;2023-08-20T15:07:27;28.00;99.90
3053;DHT22;1536;51.098;6.414;2023-08-20T15:09:53;28.20;99.90
3053;DHT22;1536;51.098;6.414;2023-08-20T15:12:20;28.40;99.90
3053;DHT22;1536;51.098;6.414;2023-08-20T15:14:48;28.60;99.90
3053;DHT22;1536;51.098;6.414;2023-08-20T15:17:15;28.80;99.90
3053;DHT22;1536;51.098;6.414;2023-08-20T15:19:41;28.90;99.90
3053;DHT22;1536;51.098;6.414;2023-08-20T15:22:08;29.00;99.90
3053;DHT22;1536;51.098;6.414;2023-08-20T15:24:35;29.20;99.90
3053;DHT22;1536;51.098;6.414;2023-08-20T15:27:01;29.30;99.90
3053;DHT22;1536;51.098;6.414;2023-08-20T15:29:28;29.50;99.90
3053;DHT22;1536;51.098;6.414;2023-08-20T15:31:57;29.50;99.90
3053;DHT22;1536;51.098;6.414;2023-08-20T15:34:23;29.50;99.90
3053;DHT22;1536;51.098;6.414;2023-08-20T15:36:50;29.30;99.90
3053;DHT22;1536;51.098;6.414;2023-08-20T15:39:17;29.30;99.90
3053;DHT22;1536;51.098;6.414;2023-08-20T15:41:44;29.10;99.90
3053;DHT22;1536;51.098;6.414;2023-08-20T15:44:11;29.00;99.90
3053;DHT22;1536;51.098;6.414;2023-08-20T15:46:38;29.00;99.90
3053;DHT22;1536;51.098;6.414;2023-08-20T15:49:06;29.00;99.90
3053;DHT22;1536;51.098;6.414;2023-08-20T15:51:33;29.10;99.90
3053;DHT22;1536;51.098;6.414;2023-08-20T15:54:01;29.10;99.90
3053;DHT22;1536;51.098;6.414;2023-08-20T15:56:28;29.10;99.90
3053;DHT22;1536;51.098;6.414;2023-08-20T15:58:55;29.00;99.90
3053;DHT22;1536;51.098;6.414;2023-08-20T16:01:22;29.00;99.90
3053;DHT22;1536;51.098;6.414;2023-08-20T16:03:50;29.00;99.90
3053;DHT22;1536;51.098;6.414;2023-08-20T16:06:18;29.00;99.90
3053;DHT22;1536;51.098;6.414;2023-08-20T16:08:45;28.90;99.90